Moses Lake, WA

10:16 AM PDT on August 30, 2016 (GMT -0700)
Grant County International | | Change Station

Elev 1184 ft 47.21 °N, 119.32 °W | Updated 24 minutes ago

Clear
Clear
72 °F
Feels Like 72 °F
N
12
Wind Variable Wind from North

Today
High -- | Low -- °F
--% Chance of Precip.
Yesterday
High -- | Low -- °F
Precip. -- in
Pressure 29.88 in
Visibility 10.0 miles
Clouds Clear
Dew Point 43 °F
Humidity 35%
Rainfall 0.00 in
Snow Depth Not available.
6:14 AM 7:39 PM
Waning Crescent, 3% visible
METAR KMWH 301652Z 01010KT 10SM CLR 22/06 A2990 RMK AO2 PRESFR SLP119 T02220061
Pressure 29.88 in
Visibility 10.0 miles
Clouds Clear
Dew Point 43 °F
Humidity 35%
Rainfall 0.00 in
Snow Depth Not available.
6:14 AM 7:39 PM
Waning Crescent, 3% visible
METAR KMWH 301652Z 01010KT 10SM CLR 22/06 A2990 RMK AO2 PRESFR SLP119 T02220061

10-Day Weather Forecast

Almanac

Astronomy

Aug. 30, 2016 Rise Set
Actual Time
Civil Twilight
Nautical Twilight
Astronomical Twilight
Moon
Length of Visible Light
Length of Day
Tomorrow will be .
, % of the Moon is Illuminated

Today's Extremes

State Highs State Lows

Community

WunderPhotos

Upload Photos

1,935,848 photos uploaded!

WunderBlog® & News

Nearby

Air Quality

  Air Quality AQ Index Pollutant
Not available.

Snow Depth

Station Depth Elevation

Earthquake Activity

City Distance Mag. Time & Date
Minimum magnitude displayed is 2.5.

Coastal Water Temperatures

Place Temperature

Stations

Nearby Weather Stations

Station Location Temp. Windchill Dew Point Humidity Wind Precip. Elev Updated Type
                   

Watches & Warnings

There are currently no watches in effect.